Time;durP1;ratioP1;P1;durP2;ratioP2;P2;SDS_P1;SDS_P2;PMS_P1;PMS_P2;Temp;Humidity;BMP_temperature;BMP_pressure;BME280_temperature;BME280_humidity;BME280_pressure;Samples;Min_cycle;Max_cycle;Signal;HPM_P1;HPM_P2
2023/09/04 00:02:25;;;;;;;6.05;2.42;;;14.80;99.90;;;;;;6134419;23;20009;-86
2023/09/04 00:04:52;;;;;;;5.18;2.17;;;14.80;99.90;;;;;;6134016;23;20142;-86
2023/09/04 00:07:17;;;;;;;5.85;2.10;;;14.80;99.90;;;;;;6158410;23;20048;-85
2023/09/04 00:09:43;;;;;;;4.05;1.63;;;14.70;99.90;;;;;;6158302;23;20064;-86
2023/09/04 00:12:09;;;;;;;6.55;3.00;;;14.60;99.90;;;;;;6158460;23;20021;-86
2023/09/04 00:14:34;;;;;;;5.35;2.30;;;14.60;99.90;;;;;;6158761;23;20009;-86
2023/09/04 00:17:00;;;;;;;2.20;1.08;;;14.70;99.90;;;;;;6158504;23;20017;-85
2023/09/04 00:19:25;;;;;;;4.32;1.38;;;14.50;99.90;;;;;;6158258;23;20009;-86
2023/09/04 00:21:51;;;;;;;4.32;2.03;;;14.40;99.90;;;;;;6133805;23;20451;-85
2023/09/04 00:24:19;;;;;;;4.97;1.65;;;14.40;99.90;;;;;;6133854;23;20016;-86
2023/09/04 00:26:45;;;;;;;4.00;1.88;;;14.40;99.90;;;;;;6158159;23;20060;-86
2023/09/04 00:29:10;;;;;;;2.67;1.20;;;14.50;99.90;;;;;;6158068;23;20017;-85
2023/09/04 00:31:36;;;;;;;7.13;2.28;;;14.30;99.90;;;;;;6133729;23;20005;-86
2023/09/04 00:34:02;;;;;;;4.10;1.73;;;14.40;99.90;;;;;;6158702;23;20520;-86
2023/09/04 00:36:28;;;;;;;4.57;1.27;;;14.40;99.90;;;;;;6158128;23;20466;-86
2023/09/04 00:38:53;;;;;;;3.63;1.75;;;14.30;99.90;;;;;;6157992;23;20068;-86
2023/09/04 00:41:19;;;;;;;8.30;1.98;;;14.30;99.90;;;;;;6133524;23;20004;-86
2023/09/04 00:43:44;;;;;;;5.80;1.60;;;14.30;99.90;;;;;;6158295;23;20009;-86
2023/09/04 00:46:11;;;;;;;1.75;0.90;;;14.30;99.90;;;;;;6158198;23;20013;-86
2023/09/04 00:48:39;;;;;;;4.95;1.55;;;14.20;99.90;;;;;;6157418;23;20419;-86
2023/09/04 00:51:05;;;;;;;3.85;1.25;;;14.10;99.90;;;;;;6133419;23;20076;-86
2023/09/04 00:53:31;;;;;;;6.32;1.70;;;14.10;99.90;;;;;;6158347;23;20017;-86
2023/09/04 00:56:01;;;;;;;3.30;1.05;;;14.20;99.90;;;;;;6133861;23;20100;-86
2023/09/04 00:58:26;;;;;;;3.42;1.55;;;14.10;99.90;;;;;;6158259;23;20020;-86
2023/09/04 01:00:53;;;;;;;3.70;1.30;;;14.20;99.90;;;;;;6158565;23;20084;-86
2023/09/04 01:03:20;;;;;;;3.90;1.55;;;14.20;99.90;;;;;;6133400;23;20071;-87
2023/09/04 01:05:46;;;;;;;2.20;1.08;;;14.20;99.90;;;;;;6157900;23;20071;-87
2023/09/04 01:08:13;;;;;;;2.75;1.50;;;14.10;99.90;;;;;;6132783;23;20454;-86
2023/09/04 01:10:48;;;;;;;4.75;1.92;;;14.10;99.90;;;;;;6133468;23;20328;-86
2023/09/04 01:13:25;;;;;;;5.75;3.00;;;14.10;99.90;;;;;;6158131;23;20048;-87
2023/09/04 01:15:53;;;;;;;4.85;1.52;;;14.10;99.90;;;;;;6158152;23;20017;-87
2023/09/04 01:18:19;;;;;;;5.70;3.10;;;14.10;99.90;;;;;;6157206;23;20063;-86
2023/09/04 01:20:58;;;;;;;4.75;1.75;;;14.10;99.90;;;;;;6158493;23;20079;-86
2023/09/04 01:23:23;;;;;;;7.30;1.58;;;14.00;99.90;;;;;;6157979;23;20012;-85
2023/09/04 01:25:57;;;;;;;1.88;0.90;;;14.00;99.90;;;;;;6157712;23;20021;-85
2023/09/04 01:28:34;;;;;;;4.05;1.35;;;13.90;99.90;;;;;;6157410;23;20013;-86
2023/09/04 01:31:14;;;;;;;4.22;1.52;;;13.80;99.90;;;;;;6157712;23;20083;-86
2023/09/04 01:33:47;;;;;;;2.35;0.98;;;13.80;99.90;;;;;;6157910;23;20017;-87
2023/09/04 01:36:14;;;;;;;5.40;2.40;;;13.70;99.90;;;;;;6157637;23;20470;-87
2023/09/04 01:38:41;;;;;;;5.75;1.90;;;13.80;99.90;;;;;;6132997;23;20024;-87
2023/09/04 01:41:07;;;;;;;4.30;1.95;;;13.80;99.90;;;;;;6157095;23;20009;-86
2023/09/04 01:43:33;;;;;;;3.17;1.23;;;13.80;99.90;;;;;;6157782;23;20072;-87
2023/09/04 01:45:58;;;;;;;3.45;1.17;;;13.70;99.90;;;;;;6133182;23;20084;-86
2023/09/04 01:48:24;;;;;;;3.78;1.40;;;13.60;99.90;;;;;;6157263;23;20388;-86
2023/09/04 01:50:49;;;;;;;3.03;1.33;;;13.50;99.90;;;;;;6157792;23;20009;-86
2023/09/04 01:53:16;;;;;;;6.45;2.72;;;13.50;99.90;;;;;;6133316;23;20013;-86
2023/09/04 01:55:42;;;;;;;7.65;2.80;;;13.50;99.90;;;;;;6157635;23;20017;-86
2023/09/04 01:58:07;;;;;;;7.43;2.70;;;13.60;99.90;;;;;;6157268;23;20028;-85
2023/09/04 02:00:33;;;;;;;5.88;2.03;;;13.70;99.90;;;;;;6132828;23;20013;-86
2023/09/04 02:02:58;;;;;;;6.38;1.80;;;13.60;99.90;;;;;;6157427;23;20009;-86
2023/09/04 02:05:24;;;;;;;7.30;3.45;;;13.50;99.90;;;;;;6133019;23;20009;-86
2023/09/04 02:07:50;;;;;;;8.32;3.70;;;13.60;99.90;;;;;;6157104;23;20096;-86
2023/09/04 02:10:15;;;;;;;4.57;1.95;;;13.70;99.90;;;;;;6157387;23;20466;-86
2023/09/04 02:12:41;;;;;;;8.48;2.83;;;13.60;99.90;;;;;;6157526;23;20053;-86
2023/09/04 02:15:07;;;;;;;9.40;3.15;;;13.50;99.90;;;;;;6133040;23;20019;-86
2023/09/04 02:17:33;;;;;;;9.77;1.83;;;13.50;99.90;;;;;;6157297;23;20020;-86
2023/09/04 02:20:00;;;;;;;4.72;1.77;;;13.40;99.90;;;;;;6132597;23;20012;-86
2023/09/04 02:22:26;;;;;;;3.00;1.40;;;13.30;99.90;;;;;;6132605;23;20478;-86
2023/09/04 02:24:51;;;;;;;4.72;1.60;;;13.20;99.90;;;;;;6132884;23;20009;-86
2023/09/04 02:27:17;;;;;;;3.40;1.02;;;13.20;99.90;;;;;;6157328;23;20021;-86
2023/09/04 02:29:42;;;;;;;1.98;1.10;;;13.10;99.90;;;;;;6156887;23;20429;-86
2023/09/04 02:32:08;;;;;;;2.78;1.30;;;13.00;99.90;;;;;;6157537;23;20017;-86
2023/09/04 02:34:34;;;;;;;1.95;0.80;;;13.00;99.90;;;;;;6157488;23;20050;-86
2023/09/04 02:36:59;;;;;;;3.95;0.98;;;13.00;99.90;;;;;;6157059;23;20017;-86
2023/09/04 02:39:25;;;;;;;2.38;1.00;;;12.90;99.90;;;;;;6157141;23;20009;-86
2023/09/04 02:41:50;;;;;;;4.65;1.10;;;12.80;99.90;;;;;;6132424;23;20014;-86
2023/09/04 02:44:16;;;;;;;2.28;1.10;;;12.90;99.90;;;;;;6132771;23;20013;-86
2023/09/04 02:46:41;;;;;;;1.95;0.85;;;12.90;99.90;;;;;;6157214;23;20477;-86
2023/09/04 02:49:07;;;;;;;1.85;0.90;;;12.80;99.90;;;;;;6156859;23;20072;-86
2023/09/04 02:51:33;;;;;;;5.40;0.90;;;12.90;99.90;;;;;;6157399;23;20013;-86
2023/09/04 02:53:58;;;;;;;5.07;1.00;;;12.90;99.90;;;;;;6158840;23;20472;-86
2023/09/04 02:56:24;;;;;;;2.85;0.50;;;12.90;99.90;;;;;;6159421;23;20596;-86
2023/09/04 02:58:50;;;;;;;1.98;0.70;;;12.80;99.90;;;;;;6158802;23;20039;-86
2023/09/04 03:01:18;;;;;;;6.43;0.70;;;12.70;99.90;;;;;;6159181;23;20524;-86
2023/09/04 03:03:43;;;;;;;1.73;0.60;;;12.60;99.90;;;;;;6159251;23;20005;-86
2023/09/04 03:06:10;;;;;;;2.65;0.70;;;12.70;99.90;;;;;;6134489;23;20517;-86
2023/09/04 03:08:36;;;;;;;2.10;0.82;;;12.70;99.90;;;;;;6158265;23;20013;-86
2023/09/04 03:11:06;;;;;;;0.95;0.52;;;12.70;99.90;;;;;;6159162;23;20040;-86
2023/09/04 03:13:32;;;;;;;1.83;0.80;;;12.60;99.90;;;;;;6159465;23;20017;-86
2023/09/04 03:15:58;;;;;;;0.60;0.60;;;12.70;99.90;;;;;;6159188;23;20013;-86
2023/09/04 03:18:23;;;;;;;0.68;0.60;;;12.70;99.90;;;;;;6134154;23;20096;-87
2023/09/04 03:20:49;;;;;;;0.60;0.60;;;12.60;99.90;;;;;;6159101;23;20013;-86
2023/09/04 03:23:14;;;;;;;1.48;1.00;;;12.60;99.90;;;;;;6158590;23;20005;-86
2023/09/04 03:25:40;;;;;;;1.23;0.88;;;12.70;99.90;;;;;;6158987;23;20059;-86
2023/09/04 03:28:05;;;;;;;3.58;0.93;;;12.70;99.90;;;;;;6133939;23;20093;-87
2023/09/04 03:30:33;;;;;;;1.55;0.88;;;12.60;99.90;;;;;;6134250;23;20020;-86
2023/09/04 03:32:59;;;;;;;1.13;0.70;;;12.60;99.90;;;;;;6159351;23;20024;-86
2023/09/04 03:35:25;;;;;;;1.88;0.73;;;12.60;99.90;;;;;;6158946;23;20013;-87
2023/09/04 03:37:50;;;;;;;4.93;1.92;;;12.60;99.90;;;;;;6158558;23;20097;-86
2023/09/04 03:40:17;;;;;;;6.30;3.17;;;12.50;99.90;;;;;;6134039;23;20020;-87
2023/09/04 03:42:43;;;;;;;5.43;1.55;;;12.70;99.90;;;;;;6158587;23;20013;-86
2023/09/04 03:45:09;;;;;;;7.68;3.83;;;12.70;99.90;;;;;;6158744;23;20009;-86
2023/09/04 03:47:34;;;;;;;8.10;4.00;;;12.70;99.90;;;;;;6158538;23;20040;-87
2023/09/04 03:50:00;;;;;;;6.80;2.10;;;12.80;99.90;;;;;;6133724;23;20486;-87
2023/09/04 03:52:25;;;;;;;6.65;3.40;;;12.70;99.90;;;;;;6134244;23;20035;-87
2023/09/04 03:54:51;;;;;;;3.47;1.30;;;12.70;99.90;;;;;;6134316;23;20095;-87
2023/09/04 03:57:16;;;;;;;5.10;1.30;;;12.70;99.90;;;;;;6134188;23;20017;-87
2023/09/04 03:59:42;;;;;;;7.38;1.40;;;12.60;99.90;;;;;;6158263;23;20009;-86
2023/09/04 04:02:07;;;;;;;7.03;1.90;;;12.50;99.90;;;;;;6158585;23;20332;-86
2023/09/04 04:04:33;;;;;;;2.05;1.00;;;12.60;99.90;;;;;;6158071;23;20009;-87
2023/09/04 04:06:59;;;;;;;3.30;1.40;;;12.60;99.90;;;;;;6158140;23;20080;-87
2023/09/04 04:09:24;;;;;;;4.93;1.80;;;12.50;99.90;;;;;;6156676;23;20016;-86
2023/09/04 04:11:50;;;;;;;7.90;2.72;;;12.50;99.90;;;;;;6157959;23;20016;-86
2023/09/04 04:14:16;;;;;;;6.97;1.63;;;12.50;99.90;;;;;;6134323;23;20085;-86
2023/09/04 04:16:42;;;;;;;3.85;1.27;;;12.50;99.90;;;;;;6158608;23;20020;-86
2023/09/04 04:19:07;;;;;;;6.80;2.72;;;12.50;99.90;;;;;;6158177;23;20529;-87
2023/09/04 04:21:33;;;;;;;6.30;2.45;;;12.50;99.90;;;;;;6133740;23;20095;-86
2023/09/04 04:23:59;;;;;;;9.02;5.18;;;12.50;99.90;;;;;;6158379;23;20474;-86
2023/09/04 04:26:24;;;;;;;5.57;1.95;;;12.50;99.90;;;;;;6158474;23;20451;-87
2023/09/04 04:28:50;;;;;;;6.30;2.63;;;12.50;99.90;;;;;;6157883;23;20017;-86
2023/09/04 04:31:15;;;;;;;4.53;1.50;;;12.50;99.90;;;;;;6133811;23;20354;-86
2023/09/04 04:33:41;;;;;;;6.10;1.58;;;12.30;99.90;;;;;;6158253;23;20028;-86
2023/09/04 04:36:07;;;;;;;4.25;1.60;;;12.20;99.90;;;;;;6158202;23;20088;-86
2023/09/04 04:38:33;;;;;;;4.30;1.45;;;12.20;99.90;;;;;;6133010;23;20072;-86
2023/09/04 04:40:58;;;;;;;6.28;2.80;;;12.10;99.90;;;;;;6158320;23;20020;-86
2023/09/04 04:43:24;;;;;;;4.40;1.98;;;12.20;99.90;;;;;;6133737;23;20447;-86
2023/09/04 04:45:50;;;;;;;4.00;1.42;;;12.10;99.90;;;;;;6158188;23;20091;-86
2023/09/04 04:48:15;;;;;;;2.92;1.20;;;12.00;99.90;;;;;;6157784;23;20023;-86
2023/09/04 04:50:41;;;;;;;4.72;2.30;;;12.00;99.90;;;;;;6157561;23;20027;-86
2023/09/04 04:53:07;;;;;;;5.50;2.58;;;12.00;99.90;;;;;;6158328;23;20013;-86
2023/09/04 04:55:32;;;;;;;5.05;1.48;;;12.10;99.90;;;;;;6158524;23;20071;-86
2023/09/04 04:57:58;;;;;;;2.35;0.90;;;12.00;99.90;;;;;;6158097;23;20021;-86
2023/09/04 05:00:23;;;;;;;2.22;1.10;;;11.90;99.90;;;;;;6157869;23;20009;-86
2023/09/04 05:02:49;;;;;;;2.45;1.30;;;11.80;99.90;;;;;;6157950;23;20012;-86
2023/09/04 05:05:15;;;;;;;2.30;0.93;;;11.80;99.90;;;;;;6133288;23;20493;-86
2023/09/04 05:07:41;;;;;;;5.03;1.83;;;11.80;99.90;;;;;;6157975;23;20386;-86
2023/09/04 05:10:07;;;;;;;2.95;1.23;;;11.90;99.90;;;;;;6157371;23;20067;-86
2023/09/04 05:12:33;;;;;;;3.10;1.23;;;11.80;99.90;;;;;;6157905;23;20413;-86
2023/09/04 05:14:58;;;;;;;2.15;1.00;;;11.80;99.90;;;;;;6133317;23;20012;-86
2023/09/04 05:17:24;;;;;;;6.43;1.45;;;11.70;99.90;;;;;;6158202;23;20017;-87
2023/09/04 05:19:50;;;;;;;7.55;1.67;;;11.70;99.90;;;;;;6157262;23;20009;-86
2023/09/04 05:22:15;;;;;;;5.15;2.13;;;11.70;99.90;;;;;;6158114;23;20370;-86
2023/09/04 05:24:41;;;;;;;5.25;1.25;;;11.80;99.90;;;;;;6157824;23;20390;-86
2023/09/04 05:27:06;;;;;;;2.63;1.02;;;11.80;99.90;;;;;;6158442;23;20017;-86
2023/09/04 05:29:32;;;;;;;2.95;1.20;;;11.70;99.90;;;;;;6133069;23;20021;-87
2023/09/04 05:31:58;;;;;;;3.95;1.45;;;11.70;99.90;;;;;;6157756;23;20383;-86
2023/09/04 05:34:23;;;;;;;5.22;1.70;;;11.70;99.90;;;;;;6157772;23;20017;-86
2023/09/04 05:36:49;;;;;;;4.45;1.70;;;11.70;99.90;;;;;;6157502;23;20112;-86
2023/09/04 05:39:15;;;;;;;4.53;1.58;;;11.70;99.90;;;;;;6157405;23;20451;-86
2023/09/04 05:41:40;;;;;;;6.75;1.92;;;11.80;99.90;;;;;;6131890;23;20455;-87
2023/09/04 05:44:06;;;;;;;6.28;2.97;;;11.80;99.90;;;;;;6157468;23;20108;-87
2023/09/04 05:46:32;;;;;;;5.32;1.98;;;11.90;99.90;;;;;;6157425;23;20019;-87
2023/09/04 05:48:58;;;;;;;5.38;2.05;;;12.00;99.90;;;;;;6157027;23;20093;-86
2023/09/04 05:51:24;;;;;;;3.75;1.70;;;12.00;99.90;;;;;;6132475;23;20092;-87
2023/09/04 05:53:50;;;;;;;7.20;3.00;;;12.00;99.90;;;;;;6132981;23;20013;-86
2023/09/04 05:56:17;;;;;;;6.55;2.45;;;12.10;99.90;;;;;;6184268;23;20071;-86
2023/09/04 05:58:50;;;;;;;5.53;1.85;;;12.20;99.90;;;;;;6156907;23;20368;-86
2023/09/04 06:01:17;;;;;;;6.57;2.38;;;12.20;99.90;;;;;;6132495;23;20080;-86
2023/09/04 06:03:45;;;;;;;6.07;2.38;;;12.30;99.90;;;;;;6157327;23;20139;-86
2023/09/04 06:06:11;;;;;;;6.60;2.50;;;12.30;99.90;;;;;;6157674;23;20013;-85
2023/09/04 06:08:37;;;;;;;8.77;4.72;;;12.40;99.90;;;;;;6156187;23;20013;-86
2023/09/04 06:11:04;;;;;;;8.05;3.88;;;12.50;99.90;;;;;;6157038;23;20324;-87
2023/09/04 06:13:30;;;;;;;10.30;3.90;;;12.60;99.90;;;;;;6157544;23;20044;-86
2023/09/04 06:15:57;;;;;;;8.60;4.03;;;12.60;99.90;;;;;;6156569;23;20048;-86
2023/09/04 06:18:23;;;;;;;9.82;4.18;;;12.70;99.90;;;;;;6156897;23;20511;-86
2023/09/04 06:20:50;;;;;;;11.30;4.53;;;12.80;99.90;;;;;;6157220;23;20020;-86
2023/09/04 06:23:15;;;;;;;9.40;4.80;;;12.90;99.90;;;;;;6157446;23;20391;-86
2023/09/04 06:25:44;;;;;;;11.65;5.05;;;13.00;99.90;;;;;;6157101;23;20509;-86
2023/09/04 06:28:10;;;;;;;11.55;6.00;;;13.00;99.90;;;;;;6158155;23;20431;-86
2023/09/04 06:30:37;;;;;;;9.65;5.03;;;13.10;99.90;;;;;;6159744;23;20052;-87
2023/09/04 06:33:03;;;;;;;14.05;12.45;;;13.20;99.90;;;;;;6160411;23;20017;-86
2023/09/04 06:35:28;;;;;;;11.27;7.63;;;13.40;99.90;;;;;;6136479;23;20017;-86
2023/09/04 06:37:55;;;;;;;13.60;7.60;;;13.50;99.90;;;;;;6160745;23;20076;-87
2023/09/04 06:40:21;;;;;;;14.05;7.50;;;13.60;99.90;;;;;;6160651;23;20013;-86
2023/09/04 06:42:47;;;;;;;16.67;15.02;;;13.60;99.90;;;;;;6160641;23;20088;-86
2023/09/04 06:45:13;;;;;;;13.20;7.38;;;13.80;99.90;;;;;;6160422;23;20086;-86
2023/09/04 06:47:39;;;;;;;12.63;8.07;;;13.90;99.90;;;;;;6160764;23;20017;-87
2023/09/04 06:50:08;;;;;;;15.40;9.25;;;13.90;99.90;;;;;;6159996;23;20019;-87
2023/09/04 06:52:34;;;;;;;12.52;7.50;;;14.00;99.90;;;;;;6160344;23;20013;-87
2023/09/04 06:55:00;;;;;;;12.98;8.02;;;14.10;99.90;;;;;;6160814;23;20009;-87
2023/09/04 06:57:26;;;;;;;14.15;8.95;;;14.10;99.90;;;;;;6136108;23;20517;-87
2023/09/04 06:59:54;;;;;;;13.70;8.13;;;14.20;99.90;;;;;;6160241;23;20009;-87
2023/09/04 07:02:20;;;;;;;17.60;15.90;;;14.30;99.90;;;;;;6160575;23;20080;-87
2023/09/04 07:04:46;;;;;;;14.43;8.32;;;14.40;99.90;;;;;;6135682;23;20106;-87
2023/09/04 07:07:11;;;;;;;18.83;16.92;;;14.50;99.90;;;;;;6160502;23;20013;-87
2023/09/04 07:09:37;;;;;;;16.90;10.25;;;14.60;99.90;;;;;;6160080;23;20063;-87
2023/09/04 07:12:04;;;;;;;13.45;8.65;;;14.70;99.90;;;;;;6160007;23;20079;-87
2023/09/04 07:14:29;;;;;;;13.98;7.97;;;14.70;99.90;;;;;;6160703;23;20016;-87
2023/09/04 07:16:55;;;;;;;18.30;16.52;;;14.70;99.90;;;;;;6160518;23;20013;-87
2023/09/04 07:19:20;;;;;;;14.98;8.88;;;14.90;99.90;;;;;;6135672;23;20350;-87
2023/09/04 07:21:46;;;;;;;13.73;9.90;;;15.00;99.90;;;;;;6135407;23;20140;-87
2023/09/04 07:24:12;;;;;;;16.85;9.23;;;15.10;99.90;;;;;;6160286;23;20017;-87
2023/09/04 07:26:37;;;;;;;17.55;15.75;;;15.10;99.90;;;;;;6160440;23;20009;-87
2023/09/04 07:29:03;;;;;;;13.75;9.27;;;15.30;99.90;;;;;;6160146;23;20017;-87
2023/09/04 07:31:29;;;;;;;13.32;8.00;;;15.40;99.90;;;;;;6135211;23;20017;-87
2023/09/04 07:33:55;;;;;;;16.55;14.82;;;15.50;99.90;;;;;;6136041;23;20016;-87
2023/09/04 07:36:21;;;;;;;13.45;8.50;;;15.60;99.90;;;;;;6135959;23;20017;-87
2023/09/04 07:38:47;;;;;;;14.88;13.38;;;15.70;99.90;;;;;;6187190;23;20017;-87
2023/09/04 07:41:13;;;;;;;15.00;13.40;;;15.80;99.90;;;;;;6159096;23;20059;-87
2023/09/04 07:43:38;;;;;;;17.58;8.73;;;16.00;99.90;;;;;;6158892;23;20045;-87
2023/09/04 07:46:04;;;;;;;14.85;12.90;;;16.00;99.90;;;;;;6185440;23;20320;-87
2023/09/04 07:48:30;;;;;;;12.23;8.55;;;16.20;99.90;;;;;;6158510;23;20455;-87
2023/09/04 07:50:57;;;;;;;13.32;12.02;;;16.20;99.90;;;;;;6133668;23;20023;-87
2023/09/04 07:53:23;;;;;;;14.13;7.75;;;16.30;99.90;;;;;;6158621;23;20013;-88
2023/09/04 07:55:49;;;;;;;13.60;11.63;;;16.40;99.90;;;;;;6159023;23;20059;-88
2023/09/04 07:58:15;;;;;;;12.13;8.40;;;16.50;99.90;;;;;;6158269;23;20019;-88
2023/09/04 08:00:49;;;;;;;13.43;12.02;;;16.60;99.90;;;;;;6133916;23;20390;-87
2023/09/04 08:03:15;;;;;;;16.20;8.38;;;16.70;99.90;;;;;;6158287;23;20017;-87
2023/09/04 08:05:41;;;;;;;12.35;10.95;;;16.80;99.90;;;;;;6159172;23;20005;-88
2023/09/04 08:08:11;;;;;;;13.27;10.48;;;16.90;99.90;;;;;;6158835;23;20008;-87
2023/09/04 08:10:43;;;;;;;13.50;6.55;;;17.10;99.90;;;;;;6158473;23;20075;-87
2023/09/04 08:13:18;;;;;;;10.85;8.35;;;17.10;99.90;;;;;;6158206;23;20035;-88
2023/09/04 08:15:44;;;;;;;10.55;7.85;;;17.30;99.90;;;;;;6158909;23;20013;-87
2023/09/04 08:18:10;;;;;;;10.68;8.02;;;17.40;99.90;;;;;;6158401;23;20096;-88
2023/09/04 08:20:36;;;;;;;11.73;8.20;;;17.50;99.90;;;;;;6158479;23;20047;-87
2023/09/04 08:23:03;;;;;;;11.15;7.65;;;17.70;99.90;;;;;;6133888;23;20092;-87
2023/09/04 08:25:29;;;;;;;10.77;5.20;;;17.80;99.90;;;;;;6158758;23;20048;-87
2023/09/04 08:27:54;;;;;;;10.05;6.38;;;17.80;99.90;;;;;;6134178;23;20075;-87
2023/09/04 08:30:20;;;;;;;10.23;7.20;;;17.90;99.90;;;;;;6157703;23;20044;-88
2023/09/04 08:32:46;;;;;;;12.00;5.97;;;18.10;99.90;;;;;;6158689;23;20351;-88
2023/09/04 08:35:11;;;;;;;10.02;5.70;;;18.10;99.90;;;;;;6158628;23;20020;-87
2023/09/04 08:37:37;;;;;;;8.50;5.70;;;18.20;99.90;;;;;;6158260;23;20443;-87
2023/09/04 08:40:04;;;;;;;11.32;5.38;;;18.40;99.90;;;;;;6132783;23;20048;-88
2023/09/04 08:42:29;;;;;;;9.18;4.95;;;18.40;99.90;;;;;;6158211;23;20020;-88
2023/09/04 08:44:59;;;;;;;8.18;4.53;;;18.60;99.90;;;;;;6158510;23;20009;-89
2023/09/04 08:47:25;;;;;;;8.57;4.30;;;18.70;99.90;;;;;;6158389;23;20013;-89
2023/09/04 08:49:53;;;;;;;8.00;4.60;;;18.80;99.90;;;;;;6157793;23;20017;-89
2023/09/04 08:52:19;;;;;;;8.48;4.82;;;18.80;99.90;;;;;;6157816;23;20024;-89
2023/09/04 08:54:46;;;;;;;7.75;4.47;;;18.90;99.90;;;;;;6157930;23;20021;-88
2023/09/04 08:57:12;;;;;;;9.05;4.72;;;19.00;99.90;;;;;;6133268;23;20024;-88
2023/09/04 08:59:38;;;;;;;8.13;4.40;;;19.10;99.90;;;;;;6157719;23;20064;-88
2023/09/04 09:02:04;;;;;;;7.45;3.92;;;19.20;99.90;;;;;;6157692;23;20013;-88
2023/09/04 09:04:34;;;;;;;7.85;3.92;;;19.30;99.90;;;;;;6157693;23;20040;-88
2023/09/04 09:07:02;;;;;;;7.15;3.30;;;19.40;99.90;;;;;;6157818;23;20427;-88
2023/09/04 09:09:29;;;;;;;7.70;4.00;;;19.50;99.90;;;;;;6157803;23;20005;-89
2023/09/04 09:11:55;;;;;;;8.10;3.70;;;19.60;99.90;;;;;;6157357;23;20015;-88
2023/09/04 09:14:22;;;;;;;8.55;3.92;;;19.60;99.90;;;;;;6158029;23;20096;-88
2023/09/04 09:16:47;;;;;;;8.77;3.85;;;19.70;99.90;;;;;;6158312;23;20059;-88
2023/09/04 09:19:13;;;;;;;8.02;3.30;;;19.80;99.90;;;;;;6157612;23;20465;-88
2023/09/04 09:21:39;;;;;;;6.97;3.45;;;19.90;99.90;;;;;;6133093;23;20509;-88
2023/09/04 09:24:11;;;;;;;6.78;3.53;;;20.00;99.90;;;;;;6133218;23;20017;-88
2023/09/04 09:26:43;;;;;;;7.95;4.03;;;20.10;99.90;;;;;;6157996;23;20009;-88
2023/09/04 09:29:12;;;;;;;9.27;4.10;;;20.20;99.90;;;;;;6157752;23;20012;-88
2023/09/04 09:31:39;;;;;;;9.20;4.53;;;20.30;99.90;;;;;;6157308;23;20017;-89
2023/09/04 09:34:05;;;;;;;8.07;3.78;;;20.30;99.90;;;;;;6132749;23;20088;-89
2023/09/04 09:36:30;;;;;;;8.23;3.08;;;20.40;99.90;;;;;;6133237;23;20012;-89
2023/09/04 09:38:56;;;;;;;6.90;3.28;;;20.40;99.90;;;;;;6157305;23;20013;-88
2023/09/04 09:41:23;;;;;;;7.47;3.08;;;20.50;99.90;;;;;;6158045;23;20103;-88
2023/09/04 09:43:49;;;;;;;8.85;3.50;;;20.60;99.90;;;;;;6133483;23;20450;-89
2023/09/04 09:46:17;;;;;;;9.43;3.78;;;20.70;99.90;;;;;;6133298;23;20005;-89
2023/09/04 09:48:46;;;;;;;7.25;3.25;;;20.80;99.90;;;;;;6132929;23;20013;-89
2023/09/04 09:51:13;;;;;;;6.55;3.05;;;20.90;99.90;;;;;;6157663;23;20013;-89
2023/09/04 09:53:46;;;;;;;8.15;3.35;;;21.00;99.90;;;;;;6133077;23;20013;-89
2023/09/04 09:56:13;;;;;;;6.65;3.05;;;21.00;99.90;;;;;;6133249;23;20023;-90
2023/09/04 09:58:41;;;;;;;6.45;2.40;;;21.10;99.90;;;;;;6157436;23;20013;-88
2023/09/04 10:01:08;;;;;;;8.00;3.00;;;21.10;99.90;;;;;;6158001;23;20534;-88
2023/09/04 10:03:35;;;;;;;6.32;2.80;;;21.30;99.90;;;;;;6132242;23;20028;-88
2023/09/04 10:06:06;;;;;;;7.00;2.90;;;21.30;99.90;;;;;;6157120;23;20543;-88
2023/09/04 10:08:51;;;;;;;7.00;3.03;;;21.40;99.90;;;;;;6156183;23;20017;-88
2023/09/04 10:11:17;;;;;;;7.53;3.03;;;21.50;99.90;;;;;;6132110;23;20067;-88
2023/09/04 10:13:58;;;;;;;6.45;2.83;;;21.60;99.90;;;;;;6132651;23;20072;-88
2023/09/04 10:16:50;;;;;;;7.93;3.00;;;21.70;99.90;;;;;;6157448;23;20020;-88
2023/09/04 10:19:18;;;;;;;8.10;3.20;;;21.70;99.90;;;;;;6147037;23;20017;-89
2023/09/04 10:21:51;;;;;;;7.15;3.17;;;21.80;99.90;;;;;;6132246;23;20327;-88
2023/09/04 10:24:24;;;;;;;7.55;3.35;;;21.90;99.90;;;;;;6157279;23;20013;-88
2023/09/04 10:27:11;;;;;;;7.22;3.22;;;22.00;99.90;;;;;;6132695;23;20092;-88
2023/09/04 10:29:54;;;;;;;7.72;2.90;;;22.10;99.90;;;;;;6157449;23;20013;-89
2023/09/04 10:32:20;;;;;;;7.70;3.00;;;22.10;99.90;;;;;;6157199;23;20052;-89
2023/09/04 10:34:46;;;;;;;6.95;3.00;;;22.20;99.90;;;;;;6157553;23;20462;-89
2023/09/04 10:37:12;;;;;;;6.72;3.10;;;22.30;99.90;;;;;;6157458;23;20028;-89
2023/09/04 10:39:39;;;;;;;8.48;2.72;;;22.40;99.90;;;;;;6132996;23;20013;-89
2023/09/04 10:42:06;;;;;;;7.68;3.03;;;22.50;99.90;;;;;;6157743;23;20013;-88
2023/09/04 10:44:50;;;;;;;6.35;2.60;;;22.60;99.90;;;;;;6157202;23;20013;-88
2023/09/04 10:47:16;;;;;;;6.50;2.47;;;22.70;99.90;;;;;;6157590;23;20028;-89
2023/09/04 10:49:43;;;;;;;7.28;2.70;;;22.70;99.90;;;;;;6157085;23;20040;-88
2023/09/04 10:52:09;;;;;;;5.72;2.13;;;22.80;99.90;;;;;;6131665;23;20013;-89
2023/09/04 10:54:35;;;;;;;6.80;2.63;;;22.90;99.70;;;;;;6156998;23;20013;-89
2023/09/04 10:57:05;;;;;;;5.70;2.55;;;23.00;97.30;;;;;;6157502;23;20012;-88
2023/09/04 10:59:54;;;;;;;5.43;2.30;;;23.10;97.20;;;;;;6156955;23;20020;-89
2023/09/04 11:02:30;;;;;;;8.75;2.38;;;23.20;99.90;;;;;;6157210;23;20093;-88
2023/09/04 11:04:56;;;;;;;6.55;2.90;;;23.30;97.70;;;;;;6157233;23;20009;-88
2023/09/04 11:07:21;;;;;;;8.18;2.70;;;23.40;98.70;;;;;;6157239;23;20104;-89
2023/09/04 11:10:13;;;;;;;6.63;3.03;;;23.50;97.80;;;;;;6132256;23;20044;-89
2023/09/04 11:12:39;;;;;;;6.53;2.80;;;23.60;91.70;;;;;;6132288;23;20447;-89
2023/09/04 11:15:15;;;;;;;5.18;2.25;;;23.70;92.30;;;;;;6158442;23;20013;-89
2023/09/04 11:17:45;;;;;;;9.85;3.65;;;23.80;91.40;;;;;;6134327;23;20454;-89
2023/09/04 11:20:14;;;;;;;7.50;2.50;;;23.90;92.00;;;;;;6158850;23;20044;-89
2023/09/04 11:22:47;;;;;;;7.25;2.72;;;24.00;91.20;;;;;;6158969;23;20083;-89
2023/09/04 11:25:12;;;;;;;;;;;24.10;89.90;;;;;;6135028;23;20103;-89
2023/09/04 11:27:38;;;;;;;4.38;1.92;;;24.20;92.20;;;;;;6134500;23;19912;-89
2023/09/04 11:30:04;;;;;;;5.88;2.17;;;24.30;91.00;;;;;;6158677;23;20013;-89
2023/09/04 11:32:35;;;;;;;6.15;2.15;;;24.40;86.10;;;;;;6158847;23;20438;-89
2023/09/04 11:35:01;;;;;;;4.80;1.92;;;24.40;84.20;;;;;;6158554;23;20017;-89
2023/09/04 11:37:32;;;;;;;5.88;2.20;;;24.50;84.70;;;;;;6148259;23;20038;-89
2023/09/04 11:39:59;;;;;;;5.22;2.13;;;24.70;83.70;;;;;;6131969;23;20020;-89
2023/09/04 11:42:29;;;;;;;7.00;2.00;;;24.70;79.70;;;;;;6156340;23;20013;-90
2023/09/04 11:44:54;;;;;;;4.55;1.80;;;24.80;82.30;;;;;;6156701;23;20086;-89
2023/09/04 11:47:22;;;;;;;5.63;1.95;;;24.90;82.60;;;;;;6157878;23;20017;-90
2023/09/04 11:49:48;;;;;;;5.97;2.30;;;25.10;82.00;;;;;;6157652;23;20017;-89
2023/09/04 11:52:16;;;;;;;7.32;2.30;;;25.20;80.90;;;;;;6157430;23;20472;-90
2023/09/04 11:54:43;;;;;;;6.45;2.70;;;25.40;78.10;;;;;;6156447;23;20013;-89
2023/09/04 11:57:09;;;;;;;4.28;1.70;;;25.50;78.80;;;;;;6131651;23;20016;-88
2023/09/04 11:59:40;;;;;;;4.80;1.90;;;25.50;78.50;;;;;;6131454;23;20064;-90
2023/09/04 12:02:10;;;;;;;4.22;1.80;;;25.70;77.60;;;;;;6156589;23;20447;-89
2023/09/04 12:04:36;;;;;;;7.05;1.88;;;25.70;75.90;;;;;;6156026;23;20040;-90
2023/09/04 12:07:03;;;;;;;6.07;1.80;;;25.80;75.00;;;;;;6155983;23;20064;-90
2023/09/04 12:09:29;;;;;;;4.40;1.70;;;26.00;75.20;;;;;;6156859;23;20471;-90
2023/09/04 12:11:56;;;;;;;5.90;1.95;;;26.10;74.20;;;;;;6133612;23;20013;-89
2023/09/04 12:14:21;;;;;;;6.30;2.83;;;26.20;72.60;;;;;;6158193;23;20019;-89
2023/09/04 12:16:48;;;;;;;5.63;2.05;;;26.40;72.70;;;;;;6158196;23;20099;-89
2023/09/04 12:19:17;;;;;;;4.10;1.50;;;26.50;71.80;;;;;;6133230;23;20016;-90
2023/09/04 12:21:43;;;;;;;3.53;1.60;;;26.60;71.30;;;;;;6133780;23;20096;-90
2023/09/04 12:24:14;;;;;;;5.18;1.65;;;26.80;72.20;;;;;;6158406;23;20013;-90
2023/09/04 12:26:39;;;;;;;4.18;1.77;;;26.90;70.70;;;;;;6133700;23;20055;-89
2023/09/04 12:29:07;;;;;;;4.65;1.70;;;27.00;69.80;;;;;;6133412;23;20013;-89
2023/09/04 12:31:32;;;;;;;3.80;1.65;;;27.10;70.20;;;;;;6133320;23;20020;-89
2023/09/04 12:33:58;;;;;;;5.82;1.80;;;27.20;68.90;;;;;;6158559;23;20020;-89
2023/09/04 12:36:24;;;;;;;3.40;1.42;;;27.40;70.70;;;;;;6134024;23;20466;-89
2023/09/04 12:38:49;;;;;;;3.47;1.52;;;27.50;69.60;;;;;;6158284;23;20088;-89
2023/09/04 12:41:15;;;;;;;4.60;1.55;;;27.70;68.40;;;;;;6158191;23;20328;-89
2023/09/04 12:43:40;;;;;;;3.60;1.50;;;27.80;67.60;;;;;;6133710;23;20013;-89
2023/09/04 12:46:06;;;;;;;4.43;1.58;;;27.90;67.20;;;;;;6133792;23;20013;-89